Time;durP1;ratioP1;P1;durP2;ratioP2;P2;SDS_P1;SDS_P2;PMS_P1;PMS_P2;Temp;Humidity;BMP_temperature;BMP_pressure;BME280_temperature;BME280_humidity;BME280_pressure;Samples;Min_cycle;Max_cycle;Signal;HPM_P1;HPM_P2
2020/12/01 00:00:17;;;;;;;23.63;17.03;;;;;;;0.35;67.49;101416.59;1690777;83;21220;-76
2020/12/01 00:02:44;;;;;;;27.60;18.30;;;;;;;0.38;67.43;101421.19;1689571;83;21288;-83
2020/12/01 00:05:15;;;;;;;34.20;22.63;;;;;;;0.36;67.56;101420.44;1699975;82;21183;-80
2020/12/01 00:07:43;;;;;;;26.23;19.17;;;;;;;0.42;67.48;101423.63;1678095;85;21180;-85
2020/12/01 00:10:14;;;;;;;28.17;20.33;;;;;;;0.44;67.45;101419.13;1642762;85;21181;-80
2020/12/01 00:12:42;;;;;;;29.80;21.40;;;;;;;0.38;67.53;101416.42;1660451;85;21377;-82
2020/12/01 00:15:11;;;;;;;31.30;22.47;;;;;;;0.30;67.92;101406.86;1658531;85;21190;-80
2020/12/01 00:17:39;;;;;;;29.20;21.33;;;;;;;0.26;68.04;101419.79;1658152;85;21186;-79
2020/12/01 00:20:08;;;;;;;29.50;20.73;;;;;;;0.21;68.20;101421.40;1657858;85;21316;-77
2020/12/01 00:22:35;;;;;;;28.93;19.10;;;;;;;0.16;68.24;101428.22;1659922;85;21260;-76
2020/12/01 00:25:06;;;;;;;25.73;18.37;;;;;;;0.18;68.38;101434.20;1661043;85;21403;-79
2020/12/01 00:27:33;;;;;;;22.70;16.53;;;;;;;0.16;68.43;101438.70;1661712;85;21170;-81
2020/12/01 00:30:01;;;;;;;25.17;16.60;;;;;;;0.16;68.49;101440.02;1660305;85;21288;-81
2020/12/01 00:32:29;;;;;;;22.93;14.73;;;;;;;0.14;68.56;101439.27;1664282;85;21175;-77
2020/12/01 00:34:56;;;;;;;20.33;15.27;;;;;;;0.11;68.72;101442.07;1665927;85;21161;-79
2020/12/01 00:37:23;;;;;;;22.80;14.70;;;;;;;0.12;68.73;101433.77;1687970;84;21121;-79
2020/12/01 00:44:28;;;;;;;25.50;16.47;;;;;;;0.05;69.02;101437.20;1678451;83;21153;-80
2020/12/01 01:48:55;;;;;;;13.77;10.80;;;;;;;-0.17;70.41;101451.23;1627229;85;21781;-82
2020/12/01 01:51:25;;;;;;;17.30;11.83;;;;;;;-0.20;70.53;101441.78;1640963;85;21217;-81
2020/12/01 01:53:52;;;;;;;17.37;12.53;;;;;;;-0.23;70.58;101434.96;1639333;86;21549;-84
2020/12/01 01:56:26;;;;;;;16.97;12.50;;;;;;;-0.27;70.74;101437.36;1641358;86;21175;-75
2020/12/01 01:58:53;;;;;;;16.20;11.83;;;;;;;-0.28;70.76;101436.17;1641222;86;21624;-75
2020/12/01 02:01:23;;;;;;;16.23;10.80;;;;;;;-0.30;70.92;101438.88;1640623;86;21329;-76
2020/12/01 02:03:53;;;;;;;18.30;12.90;;;;;;;-0.31;70.97;101442.41;1628349;86;21325;-76
2020/12/01 02:06:31;;;;;;;17.13;12.33;;;;;;;-0.33;71.06;101440.36;1657764;84;21067;-76
2020/12/01 02:09:01;;;;;;;13.60;11.23;;;;;;;-0.36;71.19;101435.77;1670608;84;21375;-76
2020/12/01 02:11:31;;;;;;;16.20;10.60;;;;;;;-0.36;71.23;101439.22;1658567;85;21197;-77
2020/12/01 02:14:22;;;;;;;14.10;10.60;;;;;;;-0.38;71.37;101436.32;1652353;85;21202;-76
2020/12/01 02:16:54;;;;;;;14.87;10.77;;;;;;;-0.35;71.22;101431.75;1669688;85;21178;-76
2020/12/01 02:19:29;;;;;;;12.53;9.90;;;;;;;-0.37;71.29;101432.78;1653895;85;21356;-77
2020/12/01 02:21:58;;;;;;;16.57;10.10;;;;;;;-0.33;71.23;101425.94;1662960;86;21336;-77
2020/12/01 02:24:28;;;;;;;16.63;11.00;;;;;;;-0.31;71.11;101427.17;1663877;86;21332;-76
2020/12/01 02:26:58;;;;;;;13.00;9.80;;;;;;;-0.29;70.98;101430.06;1671132;86;21310;-87
2020/12/01 02:29:35;;;;;;;14.23;10.90;;;;;;;-0.32;71.19;101426.34;1657100;84;21205;-86
2020/12/01 02:32:04;;;;;;;15.45;10.68;;;;;;;-0.27;71.09;101432.12;1658920;86;21217;-84
2020/12/01 02:34:40;;;;;;;14.13;11.40;;;;;;;-0.24;70.97;101454.22;1671593;85;21213;-86
2020/12/01 02:37:08;;;;;;;17.73;12.80;;;;;;;-0.21;70.76;101455.81;1626503;85;21093;-85
2020/12/01 02:39:35;;;;;;;13.90;10.37;;;;;;;-0.23;70.79;101462.92;1621886;87;21239;-85
2020/12/01 02:42:07;;;;;;;15.23;12.37;;;;;;;-0.18;70.70;101466.12;1613033;88;21217;-86
2020/12/01 02:44:37;;;;;;;13.93;10.53;;;;;;;-0.27;70.83;101462.25;1622317;87;21177;-85
2020/12/01 02:47:06;;;;;;;12.77;9.63;;;;;;;-0.27;70.78;101467.49;1616642;88;21216;-85
2020/12/01 02:49:34;;;;;;;11.73;9.73;;;;;;;-0.33;70.99;101474.41;1616571;88;21176;-85
2020/12/01 02:52:03;;;;;;;11.93;10.03;;;;;;;-0.30;71.01;101482.55;1581628;90;21254;-80
2020/12/01 02:54:30;;;;;;;14.30;10.87;;;;;;;-0.30;71.16;101478.17;1629024;87;21211;-81
2020/12/01 02:56:57;;;;;;;;;;;;;;;-0.28;71.05;101471.54;1634149;87;21169;-80
2020/12/01 02:59:24;;;;;;;15.23;11.70;;;;;;;-0.29;71.14;101465.44;1622560;87;20183;-80
2020/12/01 03:01:51;;;;;;;11.90;10.23;;;;;;;-0.32;71.32;101471.31;1610960;88;21212;-80
2020/12/01 03:06:26;;;;;;;16.07;12.53;;;;;;;-0.24;71.31;101462.56;1855259;74;23110;-77
2020/12/01 03:08:53;;;;;;;15.57;10.27;;;;;;;-0.23;71.13;101462.48;1790186;78;21168;-81
2020/12/01 03:11:20;;;;;;;15.83;11.93;;;;;;;-0.26;71.11;101461.34;1821638;77;21168;-81
2020/12/01 03:13:48;;;;;;;13.80;10.40;;;;;;;-0.26;71.12;101460.50;1811524;77;21621;-81
2020/12/01 03:16:16;;;;;;;12.87;9.70;;;;;;;-0.31;71.32;101452.89;1827095;77;21171;-78
2020/12/01 03:18:45;;;;;;;14.17;10.23;;;;;;;-0.30;71.33;101458.53;1808008;77;21221;-78
2020/12/01 03:21:14;;;;;;;14.40;11.77;;;;;;;-0.33;71.35;101460.48;1792957;79;21170;-79
2020/12/01 03:23:42;;;;;;;16.47;11.67;;;;;;;-0.36;71.61;101458.03;1788484;79;21218;-79
2020/12/01 03:26:11;;;;;;;19.20;12.23;;;;;;;-0.34;71.62;101459.64;1784634;78;21190;-79
2020/12/01 03:28:39;;;;;;;15.70;11.00;;;;;;;-0.30;71.50;101463.77;1787385;78;21184;-79
2020/12/01 03:31:13;;;;;;;15.47;11.87;;;;;;;-0.29;71.49;101468.05;1789441;79;21617;-79
2020/12/01 03:33:42;;;;;;;19.20;12.83;;;;;;;-0.30;71.60;101470.76;1775737;79;21159;-79
2020/12/01 03:36:11;;;;;;;17.47;12.70;;;;;;;-0.27;71.58;101469.28;1799041;78;21106;-80
2020/12/01 03:38:38;;;;;;;17.70;12.10;;;;;;;-0.30;71.67;101468.14;1799151;78;21164;-79
2020/12/01 03:41:06;;;;;;;15.43;10.80;;;;;;;-0.31;71.67;101473.02;1802103;78;21592;-80
2020/12/01 03:43:33;;;;;;;;;;;;;;;-0.33;71.79;101468.34;1807001;77;21207;-79
2020/12/01 03:46:00;;;;;;;16.82;12.60;;;;;;;-0.34;71.83;101464.88;1796598;77;20276;-80
2020/12/01 03:48:27;;;;;;;20.13;14.53;;;;;;;-0.38;72.01;101464.66;1783494;79;21255;-78
2020/12/01 03:50:53;;;;;;;;;;;;;;;-0.41;72.14;101466.17;1792515;79;21167;-78
2020/12/01 03:53:20;;;;;;;16.53;10.83;;;;;;;-0.37;72.19;101471.60;1770258;79;20213;-75
2020/12/01 03:55:51;;;;;;;15.50;10.17;;;;;;;-0.41;72.18;101472.72;1795410;79;21177;-77
2020/12/01 03:58:20;;;;;;;17.90;12.07;;;;;;;-0.39;72.16;101470.85;1808223;79;21145;-79
2020/12/01 04:00:47;;;;;;;;;;;;;;;-0.44;72.26;101468.48;1801103;79;21921;-83
2020/12/01 04:03:15;;;;;;;19.55;13.38;;;;;;;-0.43;72.20;101468.04;1793613;79;20180;-84
2020/12/01 04:05:45;;;;;;;19.63;14.03;;;;;;;-0.57;72.56;101466.20;1755035;80;21048;-82
2020/12/01 04:08:13;;;;;;;13.30;10.83;;;;;;;-0.56;72.61;101462.66;1726594;81;21340;-86
2020/12/01 04:10:41;;;;;;;17.87;12.70;;;;;;;-0.58;72.72;101463.22;1701890;84;21204;-84
2020/12/01 04:13:08;;;;;;;15.07;10.97;;;;;;;-0.56;72.71;101460.52;1710654;83;21233;-84
2020/12/01 04:15:35;;;;;;;14.60;11.03;;;;;;;-0.55;72.80;101459.09;1683273;83;21685;-84
2020/12/01 04:18:02;;;;;;;19.27;13.37;;;;;;;-0.57;72.88;101463.58;1704095;83;21198;-83
2020/12/01 04:20:29;;;;;;;;;;;;;;;-0.60;72.83;101458.06;1708316;82;21227;-82
2020/12/01 04:22:57;;;;;;;17.48;13.00;;;;;;;-0.82;73.00;101424.88;1694966;83;20303;-85
2020/12/01 04:25:26;;;;;;;17.00;12.57;;;;;;;-0.69;73.16;101458.59;1697199;81;21192;-84
2020/12/01 04:27:56;;;;;;;15.47;11.50;;;;;;;-0.67;73.17;101464.58;1701858;83;21663;-84
2020/12/01 04:30:25;;;;;;;17.60;12.10;;;;;;;-0.67;73.15;101464.58;1705234;82;21204;-86
2020/12/01 04:32:53;;;;;;;14.03;10.00;;;;;;;-0.71;73.28;101468.31;1719798;82;21172;-80
2020/12/01 04:35:24;;;;;;;20.37;12.00;;;;;;;-0.70;73.38;101464.75;1690909;82;21184;-78
2020/12/01 04:37:52;;;;;;;15.03;11.37;;;;;;;-0.74;73.54;101456.70;1703788;82;21167;-77
2020/12/01 04:40:22;;;;;;;17.67;11.93;;;;;;;-0.71;73.49;101458.31;1708645;82;21208;-79
2020/12/01 04:42:52;;;;;;;15.83;12.00;;;;;;;-0.70;73.49;101467.84;1676192;83;21298;-79
2020/12/01 04:45:20;;;;;;;18.87;13.90;;;;;;;-0.68;73.42;101463.36;1703103;82;21216;-79
2020/12/01 04:48:00;;;;;;;16.00;10.80;;;;;;;-0.70;73.44;101466.05;1676248;83;21412;-80
2020/12/01 04:50:38;;;;;;;22.13;14.30;;;;;;;-0.66;73.35;101458.87;1691125;82;21193;-77
2020/12/01 04:53:47;;;;;;;14.77;11.40;;;;;;;-0.66;73.40;101461.05;1692195;82;21341;-77
2020/12/01 04:56:41;;;;;;;;;;;;;;;-0.65;73.26;101457.48;1694783;82;21140;-79
2020/12/01 04:59:27;;;;;;;17.63;12.60;;;;;;;-0.63;73.37;101460.02;1697944;82;20195;-81
2020/12/01 05:02:25;;;;;;;14.70;11.47;;;;;;;-0.70;73.55;101459.51;1704899;82;21235;-77
2020/12/01 05:05:18;;;;;;;23.23;15.83;;;;;;;-0.68;73.42;101462.05;1699314;83;21349;-78
2020/12/01 05:08:17;;;;;;;19.63;14.43;;;;;;;-0.70;73.50;101472.60;1682573;82;21199;-77
2020/12/01 05:10:44;;;;;;;16.73;12.03;;;;;;;-0.67;73.49;101478.15;1709693;82;21664;-77
2020/12/01 05:13:23;;;;;;;17.07;12.47;;;;;;;-0.69;73.52;101490.02;1687727;83;21211;-78
2020/12/01 05:15:54;;;;;;;14.60;11.90;;;;;;;-0.70;73.57;101484.38;1715248;82;21187;-78
2020/12/01 05:18:24;;;;;;;17.93;12.27;;;;;;;-0.73;73.67;101485.05;1712894;82;21872;-79
2020/12/01 05:20:58;;;;;;;14.83;11.17;;;;;;;-0.75;73.76;101488.20;1728708;81;21353;-77
2020/12/01 05:23:36;;;;;;;17.60;12.20;;;;;;;-0.75;73.73;101478.59;1725538;82;21227;-76
2020/12/01 05:26:09;;;;;;;18.30;12.67;;;;;;;-0.75;73.75;101479.03;1681668;84;21363;-77
2020/12/01 05:28:54;;;;;;;19.67;11.17;;;;;;;-0.79;73.79;101471.37;1696471;83;21184;-80
2020/12/01 05:31:25;;;;;;;14.77;11.47;;;;;;;-0.80;73.88;101483.23;1693859;83;21372;-78
2020/12/01 05:34:02;;;;;;;15.23;10.93;;;;;;;-0.82;73.99;101483.79;1727411;81;21238;-77
2020/12/01 05:36:35;;;;;;;14.70;11.17;;;;;;;-0.82;73.90;101487.72;1723498;81;21087;-78
2020/12/01 05:39:20;;;;;;;16.97;12.57;;;;;;;-0.82;73.98;101483.79;1724003;82;21216;-78
2020/12/01 05:42:03;;;;;;;16.77;11.63;;;;;;;-0.81;73.94;101486.77;1651132;85;21923;-77
2020/12/01 05:44:32;;;;;;;14.13;11.77;;;;;;;-0.83;74.06;101488.63;1690094;83;21326;-78
2020/12/01 05:47:09;;;;;;;13.97;12.20;;;;;;;-0.79;73.90;101478.39;1713286;82;21823;-81
2020/12/01 05:49:52;;;;;;;16.87;10.57;;;;;;;-0.80;74.00;101490.61;1693036;83;21386;-82
2020/12/01 05:52:29;;;;;;;24.70;12.33;;;;;;;-0.77;73.90;101492.23;1695231;83;21204;-78
2020/12/01 05:55:16;;;;;;;;;;;;;;;-0.78;74.00;101493.15;1701188;80;21231;-80
2020/12/01 05:57:45;;;;;;;15.67;11.67;;;;;;;-0.80;74.05;101485.38;1690690;82;20207;-82
2020/12/01 06:00:20;;;;;;;17.20;12.03;;;;;;;-0.81;74.13;101491.56;1686569;83;21846;-81
2020/12/01 06:03:29;;;;;;;17.67;13.70;;;;;;;-0.80;74.19;101495.02;1670482;83;21194;-80
2020/12/01 06:06:06;;;;;;;17.43;12.47;;;;;;;-0.69;74.03;101487.87;1752043;79;22875;-79
2020/12/01 06:08:57;;;;;;;19.97;13.13;;;;;;;-0.70;73.89;101490.93;1714225;82;21191;-81
2020/12/01 06:11:38;;;;;;;23.27;12.87;;;;;;;-0.65;73.69;101487.59;1734395;82;21203;-82
2020/12/01 06:14:20;;;;;;;14.50;10.60;;;;;;;-0.66;73.71;101491.60;1735391;81;21194;-82
2020/12/01 06:16:55;;;;;;;17.20;11.80;;;;;;;-0.86;73.60;101456.94;1736245;81;21582;-82
2020/12/01 06:19:55;;;;;;;15.10;11.10;;;;;;;-0.53;73.46;101500.44;1693313;82;21214;-82
2020/12/01 06:22:52;;;;;;;20.97;14.03;;;;;;;-0.51;73.36;101493.81;1704437;82;21218;-83
2020/12/01 06:25:43;;;;;;;16.67;13.07;;;;;;;-0.53;73.36;101499.13;1715439;82;21372;-82
2020/12/01 06:28:37;;;;;;;18.03;13.17;;;;;;;-0.50;73.38;101500.75;1712093;82;21192;-81
2020/12/01 06:31:19;;;;;;;21.50;13.90;;;;;;;-0.46;73.08;101507.50;1724021;82;21206;-84
2020/12/01 06:33:55;;;;;;;16.63;11.63;;;;;;;-0.51;73.15;101509.09;1713432;82;21175;-81
2020/12/01 06:37:13;;;;;;;14.63;11.93;;;;;;;-0.53;73.52;101498.30;1713188;81;21104;-81
2020/12/01 06:39:58;;;;;;;16.47;12.80;;;;;;;-0.53;73.54;101505.68;1710604;82;21326;-83
2020/12/01 06:42:39;;;;;;;24.60;17.03;;;;;;;-0.52;73.77;101511.78;1700533;82;21211;-82
2020/12/01 06:45:33;;;;;;;17.83;13.43;;;;;;;-0.45;73.80;101509.20;1705136;82;21216;-82
2020/12/01 06:48:11;;;;;;;22.80;15.07;;;;;;;-1.01;73.55;101414.15;1711838;82;21349;-81
2020/12/01 06:50:47;;;;;;;20.15;14.98;;;;;;;-0.35;73.76;101509.03;1711500;82;21179;-81
2020/12/01 06:53:25;;;;;;;20.37;13.97;;;;;;;-0.35;73.56;101517.37;1714232;82;21305;-85
2020/12/01 06:56:18;;;;;;;14.63;11.37;;;;;;;-0.32;73.36;101508.86;1817859;77;22965;-83
2020/12/01 06:58:48;;;;;;;19.83;14.23;;;;;;;-0.35;73.35;101510.34;1798288;78;21195;-82
2020/12/01 07:01:29;;;;;;;17.30;13.27;;;;;;;-0.35;73.45;101519.52;1798186;78;21110;-82
2020/12/01 07:04:29;;;;;;;18.87;12.87;;;;;;;-0.30;73.33;101510.92;1794184;78;21185;-78
2020/12/01 07:07:02;;;;;;;15.53;11.07;;;;;;;-0.25;73.36;101524.58;1754929;78;21095;-80
2020/12/01 07:09:44;;;;;;;16.53;13.30;;;;;;;-0.17;72.97;101519.37;1733205;81;21209;-81
2020/12/01 07:12:23;;;;;;;17.40;13.67;;;;;;;-0.13;73.09;101526.11;1723224;81;21561;-80
2020/12/01 07:15:17;;;;;;;17.20;13.83;;;;;;;-0.10;72.92;101532.02;1732035;81;21331;-78
2020/12/01 07:18:11;;;;;;;21.30;16.70;;;;;;;-0.07;72.73;101516.60;1705569;81;22487;-78
2020/12/01 07:20:46;;;;;;;20.67;14.97;;;;;;;-0.05;72.87;101523.42;1732822;81;21321;-78
2020/12/01 07:24:14;;;;;;;27.63;18.57;;;;;;;-0.69;72.69;101408.84;1770816;78;23075;-80
2020/12/01 07:26:59;;;;;;;21.47;13.03;;;;;;;0.07;72.58;101531.02;1763650;80;21766;-77
2020/12/01 07:29:47;;;;;;;19.27;12.60;;;;;;;0.04;72.64;101522.49;1748722;80;21168;-76
2020/12/01 07:32:21;;;;;;;17.97;12.87;;;;;;;0.06;73.00;101528.48;1743253;80;21191;-78
2020/12/01 07:34:51;;;;;;;22.97;13.10;;;;;;;0.06;72.50;101536.35;1776848;79;21414;-78
2020/12/01 07:37:26;;;;;;;23.10;13.97;;;;;;;0.08;72.33;101534.03;1726672;80;21076;-78
2020/12/01 07:39:59;;;;;;;19.53;13.53;;;;;;;0.09;72.50;101522.59;1720145;81;21135;-79
2020/12/01 07:42:32;;;;;;;16.90;13.13;;;;;;;0.09;72.48;101529.15;1694759;83;21353;-77
2020/12/01 07:45:12;;;;;;;15.20;11.17;;;;;;;0.11;72.35;101527.28;1684396;84;21180;-80
2020/12/01 07:47:39;;;;;;;19.07;13.77;;;;;;;0.11;72.60;101520.72;1684500;84;21345;-80
2020/12/01 07:50:20;;;;;;;19.40;13.50;;;;;;;0.15;72.50;101522.25;1678745;84;21204;-82
2020/12/01 07:52:48;;;;;;;21.33;14.93;;;;;;;0.10;72.32;101518.22;1681339;84;21195;-79
2020/12/01 07:55:27;;;;;;;22.43;15.87;;;;;;;0.04;72.52;101532.53;1647620;83;21152;-79
2020/12/01 07:58:05;;;;;;;20.53;15.10;;;;;;;-0.03;72.68;101529.89;1697983;84;21196;-82
2020/12/01 08:00:32;;;;;;;19.40;15.03;;;;;;;-0.02;72.70;101519.33;1672965;84;21203;-81
2020/12/01 08:03:02;;;;;;;21.33;14.70;;;;;;;-0.06;72.90;101513.03;1719255;83;21330;-83
2020/12/01 08:05:29;;;;;;;17.73;12.10;;;;;;;-0.02;72.91;101523.70;1705712;82;21608;-79
2020/12/01 08:07:56;;;;;;;;;;;;;;;-0.01;73.19;101520.16;1665755;86;21210;-80
2020/12/01 08:10:23;;;;;;;19.85;12.35;;;;;;;0.04;73.11;101515.50;1661230;85;20281;-77
2020/12/01 08:12:53;;;;;;;19.17;14.33;;;;;;;-0.01;73.33;101517.06;1597834;86;21214;-79
2020/12/01 08:15:21;;;;;;;18.13;13.00;;;;;;;0.08;72.96;101513.54;1653225;86;21235;-78
2020/12/01 08:17:50;;;;;;;19.40;13.13;;;;;;;0.10;72.78;101515.13;1658526;86;21332;-80
2020/12/01 08:20:20;;;;;;;23.20;15.17;;;;;;;0.14;72.85;101519.24;1659494;85;21221;-80
2020/12/01 08:23:10;;;;;;;19.67;15.40;;;;;;;0.12;72.97;101510.63;1676388;85;21180;-82
2020/12/01 08:25:42;;;;;;;16.30;11.90;;;;;;;0.19;72.54;101512.42;1655252;86;21208;-80
2020/12/01 08:28:24;;;;;;;17.33;12.57;;;;;;;0.23;72.40;101524.86;1633421;85;21362;-79
2020/12/01 08:31:05;;;;;;;19.73;12.93;;;;;;;0.21;72.31;101511.00;1655463;85;21211;-80
2020/12/01 08:33:50;;;;;;;21.63;14.57;;;;;;;0.20;72.50;101516.72;1629298;87;22074;-80
2020/12/01 08:36:43;;;;;;;20.00;12.93;;;;;;;0.21;72.66;101513.62;1627761;86;21176;-81
2020/12/01 08:39:44;;;;;;;18.03;13.90;;;;;;;0.32;72.64;101512.06;1622456;87;21214;-82
2020/12/01 08:42:37;;;;;;;17.20;13.23;;;;;;;0.39;72.24;101517.76;1641574;86;21390;-81
2020/12/01 08:45:15;;;;;;;14.77;12.43;;;;;;;0.40;71.94;101516.84;1667736;85;21226;-79
2020/12/01 08:47:43;;;;;;;17.83;12.00;;;;;;;0.41;72.25;101510.64;1661786;84;21233;-78
2020/12/01 08:50:35;;;;;;;17.43;13.50;;;;;;;0.45;72.09;101516.06;1675951;85;21851;-80
2020/12/01 08:53:15;;;;;;;15.97;11.40;;;;;;;0.53;72.03;101509.90;1673236;85;21228;-80
2020/12/01 09:36:36;;;;;;;;;;;;;;;;;;;;;
2020/12/01 09:39:26;;;;;;;12.53;9.07;;;;;;;0.70;70.71;101464.72;1562980;89;21404;-79
2020/12/01 09:45:35;;;;;;;11.40;7.90;;;;;;;0.62;70.11;101453.36;1606832;85;21227;-81
2020/12/01 09:50:47;;;;;;;12.00;9.23;;;;;;;-0.54;69.49;101256.52;1727415;82;21169;-80
2020/12/01 10:11:02;;;;;;;9.00;6.73;;;;;;;0.66;70.31;101465.38;1669263;84;21205;-82
2020/12/01 10:36:55;;;;;;;7.97;7.13;;;;;;;0.75;70.46;101430.69;1725209;78;21445;-81
2020/12/01 10:42:48;;;;;;;11.50;4.67;;;;;;;0.73;70.53;101430.39;1812796;76;24861;-81
2020/12/01 10:45:20;;;;;;;8.37;6.83;;;;;;;0.75;70.93;101436.38;1773796;78;21120;-80
2020/12/01 10:48:03;;;;;;;7.63;6.60;;;;;;;0.68;71.13;101445.58;1783031;79;21161;-80
2020/12/01 10:50:47;;;;;;;;;;;;;;;;;;;;;
2020/12/01 11:04:19;;;;;;;6.77;5.00;;;;;;;0.49;71.32;101436.27;1769603;79;22399;-80
2020/12/01 11:07:16;;;;;;;7.73;5.53;;;;;;;0.48;71.71;101436.35;1794907;76;23577;-79
2020/12/01 11:09:43;;;;;;;8.23;5.20;;;;;;;0.42;71.36;101446.76;1752978;80;21200;-82
2020/12/01 11:12:12;;;;;;;8.07;6.27;;;;;;;0.43;71.82;101439.25;1722416;81;21259;-80
2020/12/01 11:14:41;;;;;;;8.07;7.00;;;;;;;0.47;72.24;101447.33;1738593;80;21301;-80
2020/12/01 11:17:09;;;;;;;6.20;5.60;;;;;;;0.44;72.12;101430.45;1715279;82;21287;-80
2020/12/01 11:19:42;;;;;;;6.50;5.77;;;;;;;0.44;72.24;101429.14;1732247;82;21205;-83
2020/12/01 11:22:32;;;;;;;;;;;;;;;;;;;;;
2020/12/01 11:25:30;;;;;;;7.10;5.47;;;;;;;0.57;72.36;101422.66;1845200;77;23345;-80
2020/12/01 11:28:02;;;;;;;5.17;4.50;;;;;;;0.58;71.64;101417.32;1798048;78;21187;-82
2020/12/01 11:30:31;;;;;;;6.87;5.17;;;;;;;0.60;71.43;101415.89;1852577;76;21159;-81
2020/12/01 11:33:14;;;;;;;5.57;4.63;;;;;;;0.55;71.96;101429.31;1819077;77;21155;-80
2020/12/01 11:35:45;;;;;;;7.70;6.30;;;;;;;0.53;71.89;101417.23;1812331;78;21095;-80
2020/12/01 11:38:16;;;;;;;7.37;5.70;;;;;;;0.56;72.25;101411.30;1792893;80;21618;-80
2020/12/01 11:41:18;;;;;;;;;;;;;;;;;;;;;
2020/12/01 11:44:15;;;;;;;9.08;8.00;;;;;;;0.60;72.10;101413.27;1799579;78;28328;-81
2020/12/01 11:46:45;;;;;;;6.63;6.03;;;;;;;0.76;71.77;101424.95;1777271;80;21171;-78
2020/12/01 11:49:13;;;;;;;4.63;4.00;;;;;;;0.93;71.51;101426.50;1731455;82;21172;-80
2020/12/01 11:52:06;;;;;;;;;;;;;;;;;;;;;
2020/12/01 11:55:26;;;;;;;5.70;4.17;;;;;;;0.84;71.64;101425.30;1573494;87;21311;-81
2020/12/01 11:58:14;;;;;;;6.97;4.77;;;;;;;0.74;71.83;101415.03;1815059;77;22914;-81
2020/12/01 12:00:41;;;;;;;7.20;5.53;;;;;;;0.66;72.07;101414.20;1823602;77;21144;-82
2020/12/01 12:03:08;;;;;;;7.63;5.10;;;;;;;0.69;72.29;101417.09;1826161;77;21345;-79
2020/12/01 12:05:35;;;;;;;5.60;5.10;;;;;;;0.82;71.97;101415.37;1813563;76;21049;-82
2020/12/01 12:08:08;;;;;;;5.23;4.60;;;;;;;0.82;72.20;101414.53;1760249;80;22260;-80
2020/12/01 12:10:35;;;;;;;7.50;5.23;;;;;;;0.69;72.15;101411.84;1759241;80;21222;-80
2020/12/01 12:16:56;;;;;;;;;;;;;;;;;;;;;
2020/12/01 12:31:02;;;;;;;8.03;5.63;;;;;;;0.47;72.78;101405.35;1838873;76;27912;-82
2020/12/01 12:33:34;;;;;;;9.30;5.50;;;;;;;0.38;72.87;101416.42;1829803;75;21258;-83
2020/12/01 12:36:13;;;;;;;4.23;3.50;;;;;;;0.50;73.08;101413.01;1789933;77;22947;-83
2020/12/01 12:38:48;;;;;;;4.77;4.10;;;;;;;0.44;73.10;101429.14;1759050;80;21189;-83
2020/12/01 12:41:46;;;;;;;5.57;4.63;;;;;;;0.51;72.89;101421.27;1780937;78;28511;-82
2020/12/01 12:44:14;;;;;;;5.43;4.10;;;;;;;0.50;72.58;101437.93;1764191;79;21263;-82
2020/12/01 12:46:42;;;;;;;5.30;3.63;;;;;;;0.44;72.89;101442.73;1774855;79;21236;-83
2020/12/01 12:49:09;;;;;;;9.17;5.63;;;;;;;0.39;73.64;101445.15;1769904;80;21183;-82
2020/12/01 12:51:39;;;;;;;8.30;5.50;;;;;;;0.13;73.06;101390.41;1772211;80;21159;-84
2020/12/01 12:54:06;;;;;;;7.13;6.43;;;;;;;0.44;73.15;101451.44;1765220;80;21300;-82
2020/12/01 12:56:33;;;;;;;5.87;4.17;;;;;;;0.50;73.13;101439.24;1766308;80;21328;-85
2020/12/01 12:59:03;;;;;;;6.27;5.53;;;;;;;0.51;73.08;101440.94;1754172;81;21188;-81
2020/12/01 13:01:31;;;;;;;12.07;5.87;;;;;;;0.50;73.49;101434.47;1752544;80;21158;-80
2020/12/01 13:03:58;;;;;;;8.37;6.80;;;;;;;0.45;73.38;101439.16;1762542;79;21308;-80
2020/12/01 13:06:25;;;;;;;;;;;;;;;0.48;73.33;101429.80;1727266;79;21119;-81
2020/12/01 13:08:52;;;;;;;6.87;6.17;;;;;;;0.47;73.44;101422.41;1686365;84;20172;-84
2020/12/01 13:11:18;;;;;;;;;;;;;;;0.52;73.48;101429.49;1689480;83;21220;-82
2020/12/01 13:13:47;;;;;;;9.40;6.30;;;;;;;0.55;73.51;101431.94;1675278;84;20649;-80
2020/12/01 13:16:14;;;;;;;5.33;4.40;;;;;;;0.45;73.92;101431.28;1655008;85;21195;-84
2020/12/01 13:18:42;;;;;;;11.13;6.07;;;;;;;0.40;74.57;101425.03;1636940;86;21219;-81
2020/12/01 13:21:09;;;;;;;7.93;5.43;;;;;;;0.44;74.50;101429.14;1655002;85;21222;-81
2020/12/01 13:23:37;;;;;;;;;;;;;;;0.55;74.46;101428.00;1645860;86;21273;-80
2020/12/01 13:26:04;;;;;;;9.93;7.30;;;;;;;0.51;74.50;101425.20;1628183;86;20965;-80
2020/12/01 13:28:31;;;;;;;10.37;7.73;;;;;;;0.42;74.85;101428.88;1664033;85;21239;-84
2020/12/01 13:30:59;;;;;;;9.00;7.97;;;;;;;0.34;75.39;101426.25;1661530;85;22127;-82
2020/12/01 13:33:28;;;;;;;9.50;6.73;;;;;;;0.42;75.14;101426.25;1667301;85;21211;-80
2020/12/01 13:35:55;;;;;;;9.40;7.90;;;;;;;0.47;75.19;101424.16;1692866;82;21060;-83
2020/12/01 13:38:23;;;;;;;17.23;9.33;;;;;;;0.41;75.51;101430.63;1720728;82;21330;-82
2020/12/01 13:40:51;;;;;;;10.13;6.00;;;;;;;0.36;75.55;101434.03;1722601;82;21175;-82
2020/12/01 13:43:29;;;;;;;10.43;8.10;;;;;;;0.43;75.78;101439.25;1715467;82;21813;-82
2020/12/01 13:46:00;;;;;;;11.97;8.60;;;;;;;0.56;75.42;101441.47;1710126;82;21215;-83
2020/12/01 13:48:29;;;;;;;12.37;7.40;;;;;;;0.58;75.42;101439.63;1725838;82;21178;-81
2020/12/01 13:50:57;;;;;;;8.83;7.67;;;;;;;0.54;75.62;101435.96;1718481;82;21214;-81
2020/12/01 13:56:12;;;;;;;10.43;7.93;;;;;;;0.51;75.73;101431.77;1825674;77;21781;-82
2020/12/01 13:58:41;;;;;;;7.53;5.20;;;;;;;0.62;75.37;101438.94;1797412;77;21295;-82
2020/12/01 14:01:12;;;;;;;12.50;6.13;;;;;;;0.67;75.13;101441.28;1794202;77;21308;-82
2020/12/01 14:03:40;;;;;;;10.37;7.80;;;;;;;0.58;75.33;101438.31;1806270;78;21178;-79
2020/12/01 14:06:07;;;;;;;6.37;5.47;;;;;;;0.49;75.35;101437.58;1755596;77;21248;-80
2020/12/01 14:08:39;;;;;;;7.87;6.97;;;;;;;0.52;75.45;101449.17;1690924;82;21652;-81
2020/12/01 14:11:06;;;;;;;9.37;6.70;;;;;;;0.61;74.86;101446.45;1714121;82;21201;-86
2020/12/01 14:13:34;;;;;;;9.20;6.43;;;;;;;0.62;74.92;101446.80;1724720;82;21227;-85
2020/12/01 14:16:02;;;;;;;6.10;4.90;;;;;;;-0.55;74.94;101265.30;1739709;81;21173;-84
2020/12/01 14:18:32;;;;;;;9.40;7.40;;;;;;;0.53;75.19;101448.25;1743064;81;21190;-85
2020/12/01 14:21:03;;;;;;;6.90;4.63;;;;;;;0.50;75.11;101441.03;1743699;81;21156;-82
2020/12/01 14:23:32;;;;;;;9.63;7.70;;;;;;;0.57;74.98;101444.48;1742298;81;21151;-83
2020/12/01 14:26:01;;;;;;;8.77;5.00;;;;;;;0.48;75.17;101433.73;1736968;81;21332;-86
2020/12/01 14:28:44;;;;;;;5.37;4.83;;;;;;;0.42;75.51;101443.30;1734275;81;21700;-87
2020/12/01 14:31:15;;;;;;;8.93;7.70;;;;;;;0.43;75.72;101439.25;1721577;81;21178;-83
2020/12/01 14:33:44;;;;;;;5.00;4.47;;;;;;;0.52;75.34;101448.34;1741181;81;21314;-84
2020/12/01 14:36:33;;;;;;;;;;;;;;;;;;;;;
2020/12/01 14:39:25;;;;;;;9.47;6.87;;;;;;;0.50;75.37;101442.34;1805970;78;23264;-84
2020/12/01 14:45:16;;;;;;;7.30;6.53;;;;;;;0.57;75.45;101439.23;1791415;78;22972;-85
2020/12/01 14:48:12;;;;;;;12.57;7.30;;;;;;;0.51;75.30;101444.02;1762589;80;22173;-84
2020/12/01 14:51:08;;;;;;;14.43;8.23;;;;;;;0.38;75.65;101442.17;1773012;80;21225;-85
2020/12/01 14:54:17;;;;;;;9.73;6.73;;;;;;;0.11;75.90;101400.59;1770448;80;21249;-85
2020/12/01 14:57:06;;;;;;;9.58;7.22;;;;;;;0.23;75.57;101403.78;1753993;80;21172;-82
2020/12/01 14:59:55;;;;;;;12.60;9.07;;;;;;;0.38;75.84;101440.86;1778021;80;21124;-87
2020/12/01 15:02:58;;;;;;;10.40;8.13;;;;;;;-0.90;76.13;101253.05;1746541;78;21653;-83
2020/12/01 15:06:02;;;;;;;10.37;7.23;;;;;;;0.38;76.08;101444.80;1766319;79;21120;-84
2020/12/01 15:09:14;;;;;;;9.17;7.40;;;;;;;0.36;76.15;101442.73;1669004;84;21211;-84
2020/12/01 15:12:23;;;;;;;11.73;9.07;;;;;;;0.28;76.47;101448.06;1702676;83;21203;-84
2020/12/01 15:14:51;;;;;;;11.43;9.50;;;;;;;0.33;76.34;101446.02;1691222;83;21217;-84
2020/12/01 15:17:31;;;;;;;8.97;7.67;;;;;;;0.47;76.07;101447.33;1695279;83;21239;-81
2020/12/01 15:23:19;;;;;;;11.17;8.43;;;;;;;0.51;76.16;101437.45;1822011;76;23202;-83